Time;durP1;ratioP1;P1;durP2;ratioP2;P2;SDS_P1;SDS_P2;PMS_P1;PMS_P2;Temp;Humidity;BMP_temperature;BMP_pressure;BME280_temperature;BME280_humidity;BME280_pressure;Samples;Min_cycle;Max_cycle;Signal;HPM_P1;HPM_P2
2021/12/13 00:00:14;;;;;;;4.15;2.10;;;;;;;;;;4999558;28;20142;-81
2021/12/13 00:02:48;;;;;;;4.40;1.98;;;;;;;;;;4998909;28;20046;-81
2021/12/13 00:05:21;;;;;;;3.75;1.73;;;;;;;;;;4998776;28;20114;-81
2021/12/13 00:07:56;;;;;;;4.22;1.98;;;;;;;;;;4998785;28;20444;-81
2021/12/13 00:10:35;;;;;;;4.85;2.35;;;;;;;;;;4997406;28;20104;-80
2021/12/13 00:13:06;;;;;;;4.07;2.10;;;;;;;;;;4996432;28;20079;-80
2021/12/13 00:15:36;;;;;;;4.88;2.10;;;;;;;;;;4996717;28;20453;-80
2021/12/13 00:18:07;;;;;;;3.85;2.50;;;;;;;;;;4996340;28;20046;-81
2021/12/13 00:20:40;;;;;;;4.05;2.10;;;;;;;;;;4995861;28;20644;-80
2021/12/13 00:23:15;;;;;;;5.85;2.55;;;;;;;;;;4996877;28;20520;-81
2021/12/13 00:25:46;;;;;;;4.10;2.08;;;;;;;;;;4996278;28;20051;-81
2021/12/13 00:28:17;;;;;;;3.78;1.77;;;;;;;;;;4995840;28;20047;-81
2021/12/13 00:30:53;;;;;;;3.70;1.95;;;;;;;;;;4996121;28;20137;-81
2021/12/13 00:33:29;;;;;;;5.13;2.10;;;;;;;;;;4995587;28;20042;-80
2021/12/13 00:36:04;;;;;;;4.13;1.98;;;;;;;;;;4995724;28;20065;-80
2021/12/13 00:38:34;;;;;;;5.05;2.08;;;;;;;;;;4995693;28;20054;-81
2021/12/13 00:41:04;;;;;;;4.70;2.35;;;;;;;;;;4996097;28;20050;-80
2021/12/13 00:43:37;;;;;;;4.40;2.50;;;;;;;;;;5007359;28;20515;-81
2021/12/13 00:46:10;;;;;;;6.35;2.42;;;;;;;;;;5006852;28;20460;-81
2021/12/13 00:48:39;;;;;;;4.03;2.17;;;;;;;;;;5000628;28;20046;-80
2021/12/13 00:51:14;;;;;;;5.13;2.17;;;;;;;;;;4998798;28;20050;-81
2021/12/13 00:53:45;;;;;;;5.05;2.13;;;;;;;;;;4999770;28;20046;-81
2021/12/13 00:56:59;;;;;;;4.57;1.98;;;;;;;;;;4997908;28;20054;-81
2021/12/13 00:59:29;;;;;;;5.88;2.38;;;;;;;;;;4954137;29;20082;-80
2021/12/13 01:02:07;;;;;;;4.22;2.17;;;;;;;;;;4954313;29;20106;-81
2021/12/13 01:05:06;;;;;;;4.50;2.35;;;;;;;;;;4975645;28;20070;-81
2021/12/13 01:08:04;;;;;;;4.20;1.95;;;;;;;;;;4953256;29;20051;-80
2021/12/13 01:11:08;;;;;;;3.38;2.00;;;;;;;;;;4994278;28;20061;-81
2021/12/13 01:13:47;;;;;;;4.40;2.35;;;;;;;;;;4994396;28;20087;-81
2021/12/13 01:16:33;;;;;;;4.43;2.17;;;;;;;;;;4993361;28;20532;-80
2021/12/13 01:19:25;;;;;;;5.38;2.00;;;;;;;;;;4994067;28;20502;-80
2021/12/13 01:21:59;;;;;;;3.75;2.05;;;;;;;;;;4994220;28;20097;-80
2021/12/13 01:25:03;;;;;;;5.47;2.65;;;;;;;;;;4994355;28;20113;-80
2021/12/13 01:27:31;;;;;;;4.72;2.10;;;;;;;;;;4994024;28;20048;-81
2021/12/13 01:29:59;;;;;;;5.68;2.35;;;;;;;;;;4994337;28;20046;-80
2021/12/13 01:32:34;;;;;;;5.18;2.22;;;;;;;;;;4994625;28;20398;-80
2021/12/13 01:35:01;;;;;;;4.75;2.33;;;;;;;;;;4994274;28;20046;-80
2021/12/13 01:37:32;;;;;;;5.60;2.15;;;;;;;;;;4993945;28;20520;-80
2021/12/13 01:40:07;;;;;;;4.88;2.17;;;;;;;;;;4993996;28;20457;-80
2021/12/13 01:42:34;;;;;;;3.47;1.83;;;;;;;;;;4993782;28;20553;-80
2021/12/13 01:45:06;;;;;;;4.03;2.05;;;;;;;;;;4993862;28;20445;-80
2021/12/13 01:47:38;;;;;;;3.75;1.90;;;;;;;;;;4993931;28;20058;-81
2021/12/13 01:50:13;;;;;;;4.95;2.40;;;;;;;;;;4994132;28;20050;-80
2021/12/13 01:52:41;;;;;;;5.35;2.38;;;;;;;;;;4993859;28;20046;-81
2021/12/13 01:55:14;;;;;;;4.30;2.10;;;;;;;;;;4993886;28;20495;-81
2021/12/13 01:57:48;;;;;;;3.92;2.13;;;;;;;;;;4993264;28;20050;-80
2021/12/13 02:00:21;;;;;;;4.55;1.90;;;;;;;;;;4993861;28;20050;-81
2021/12/13 02:02:51;;;;;;;3.63;1.80;;;;;;;;;;4993640;28;20089;-80
2021/12/13 02:05:21;;;;;;;4.43;2.10;;;;;;;;;;4993821;28;20498;-80
2021/12/13 02:07:51;;;;;;;4.90;2.13;;;;;;;;;;4993652;28;20069;-81
2021/12/13 02:10:27;;;;;;;4.90;2.20;;;;;;;;;;4993727;28;20082;-80
2021/12/13 02:12:58;;;;;;;4.30;2.15;;;;;;;;;;4993350;28;20616;-80
2021/12/13 02:18:13;;;;;;;4.45;2.20;;;;;;;;;;5012011;28;20129;-78
2021/12/13 02:20:44;;;;;;;4.72;2.03;;;;;;;;;;5012296;28;20054;-77
2021/12/13 02:23:12;;;;;;;4.35;2.40;;;;;;;;;;5012282;28;20042;-78
2021/12/13 02:25:43;;;;;;;5.78;2.63;;;;;;;;;;5012756;28;20057;-80
2021/12/13 02:28:11;;;;;;;;;;;;;;;;;;5013368;28;20046;-78
2021/12/13 02:30:42;;;;;;;4.97;2.38;;;;;;;;;;5012346;28;19925;-78
2021/12/13 02:33:12;;;;;;;3.90;2.10;;;;;;;;;;5012118;28;20489;-78
2021/12/13 02:35:42;;;;;;;4.65;2.50;;;;;;;;;;5011855;28;20041;-78
2021/12/13 02:38:10;;;;;;;5.05;2.33;;;;;;;;;;5012337;28;20050;-78
2021/12/13 02:40:39;;;;;;;3.85;2.47;;;;;;;;;;5011890;28;20050;-79
2021/12/13 02:43:09;;;;;;;3.65;2.05;;;;;;;;;;5012243;28;20102;-78
2021/12/13 02:45:43;;;;;;;4.95;2.45;;;;;;;;;;5012731;28;20452;-78
2021/12/13 02:48:14;;;;;;;4.80;2.00;;;;;;;;;;5013286;28;20237;-78
2021/12/13 02:50:47;;;;;;;4.32;2.08;;;;;;;;;;5012731;28;20480;-77
2021/12/13 02:53:18;;;;;;;4.28;2.05;;;;;;;;;;5012145;28;20054;-79
2021/12/13 02:55:46;;;;;;;3.80;1.90;;;;;;;;;;5012230;28;20057;-79
2021/12/13 02:58:17;;;;;;;4.95;2.60;;;;;;;;;;5013169;28;20565;-78
2021/12/13 03:00:51;;;;;;;3.35;2.03;;;;;;;;;;5012370;28;20054;-78
2021/12/13 03:03:22;;;;;;;5.18;2.25;;;;;;;;;;5011581;28;20077;-79
2021/12/13 03:05:52;;;;;;;3.63;2.00;;;;;;;;;;5011882;28;20501;-79
2021/12/13 03:08:23;;;;;;;3.43;1.90;;;;;;;;;;5012095;28;20049;-78
2021/12/13 03:10:55;;;;;;;4.90;2.03;;;;;;;;;;5012092;28;20057;-79
2021/12/13 03:13:23;;;;;;;5.15;2.40;;;;;;;;;;5012343;28;20050;-78
2021/12/13 03:15:55;;;;;;;3.90;2.05;;;;;;;;;;5012411;28;20096;-78
2021/12/13 03:18:29;;;;;;;3.50;2.10;;;;;;;;;;5012208;28;20060;-77
2021/12/13 03:21:22;;;;;;;3.83;2.03;;;;;;;;;;5012256;28;20054;-78
2021/12/13 03:24:01;;;;;;;3.72;2.00;;;;;;;;;;5011794;28;20045;-79
2021/12/13 03:26:54;;;;;;;3.65;2.00;;;;;;;;;;5011605;28;20100;-78
2021/12/13 03:29:26;;;;;;;4.15;1.83;;;;;;;;;;5011577;28;20145;-79
2021/12/13 03:31:59;;;;;;;4.50;2.08;;;;;;;;;;5011793;28;20060;-78
2021/12/13 03:34:30;;;;;;;4.05;1.98;;;;;;;;;;5011677;28;20133;-79
2021/12/13 03:37:01;;;;;;;4.18;1.80;;;;;;;;;;5011656;28;20061;-77
2021/12/13 03:39:31;;;;;;;3.28;1.75;;;;;;;;;;5013753;28;20115;-79
2021/12/13 03:42:02;;;;;;;4.47;1.73;;;;;;;;;;5016726;28;20053;-78
2021/12/13 03:44:32;;;;;;;3.58;1.63;;;;;;;;;;5016845;28;20115;-79
2021/12/13 03:47:07;;;;;;;3.95;2.00;;;;;;;;;;5016485;28;20398;-78
2021/12/13 03:49:40;;;;;;;3.67;1.77;;;;;;;;;;5015906;28;20502;-79
2021/12/13 03:52:11;;;;;;;4.28;2.10;;;;;;;;;;5016700;28;20119;-79
2021/12/13 03:54:39;;;;;;;3.03;1.90;;;;;;;;;;5016127;28;20057;-78
2021/12/13 03:57:09;;;;;;;2.80;1.80;;;;;;;;;;5016286;28;20493;-79
2021/12/13 03:59:40;;;;;;;3.95;1.92;;;;;;;;;;5015983;28;20046;-79
2021/12/13 04:02:10;;;;;;;3.72;1.85;;;;;;;;;;5017160;28;20389;-78
2021/12/13 04:04:43;;;;;;;3.67;1.90;;;;;;;;;;5016463;28;20049;-79
2021/12/13 04:07:14;;;;;;;3.97;2.10;;;;;;;;;;5016598;28;20408;-78
2021/12/13 04:09:44;;;;;;;3.92;1.95;;;;;;;;;;5016284;28;20053;-77
2021/12/13 04:12:15;;;;;;;4.32;2.17;;;;;;;;;;5016128;28;20046;-79
2021/12/13 04:14:45;;;;;;;3.83;2.00;;;;;;;;;;5018155;28;20049;-79
2021/12/13 04:17:35;;;;;;;4.28;2.22;;;;;;;;;;5016750;28;20049;-78
2021/12/13 04:20:06;;;;;;;4.30;1.98;;;;;;;;;;5025205;28;20054;-78
2021/12/13 04:22:36;;;;;;;3.85;2.10;;;;;;;;;;5031694;28;20049;-79
2021/12/13 04:25:08;;;;;;;4.63;2.03;;;;;;;;;;5032269;28;20050;-79
2021/12/13 04:27:40;;;;;;;4.05;2.22;;;;;;;;;;5030074;28;20060;-78
2021/12/13 04:30:15;;;;;;;5.18;2.67;;;;;;;;;;5032032;28;20049;-79
2021/12/13 04:32:46;;;;;;;4.32;2.38;;;;;;;;;;5033430;28;20100;-80
2021/12/13 04:35:14;;;;;;;5.13;2.60;;;;;;;;;;5033356;28;20046;-79
2021/12/13 04:37:44;;;;;;;4.55;2.50;;;;;;;;;;5030594;28;20053;-79
2021/12/13 04:40:14;;;;;;;4.38;2.70;;;;;;;;;;5024017;28;20089;-79
2021/12/13 04:42:44;;;;;;;5.68;2.75;;;;;;;;;;5016556;28;20141;-79
2021/12/13 04:45:14;;;;;;;4.63;2.70;;;;;;;;;;5016281;28;20050;-79
2021/12/13 04:47:49;;;;;;;5.15;2.70;;;;;;;;;;5015453;28;20100;-79
2021/12/13 04:50:22;;;;;;;4.35;2.47;;;;;;;;;;5016593;28;20057;-79
2021/12/13 04:52:50;;;;;;;5.13;3.05;;;;;;;;;;5017366;28;20045;-79
2021/12/13 04:55:22;;;;;;;5.70;2.55;;;;;;;;;;5017706;28;20046;-78
2021/12/13 04:57:52;;;;;;;5.68;3.33;;;;;;;;;;5021213;28;20108;-78
2021/12/13 05:00:23;;;;;;;6.68;2.72;;;;;;;;;;5017571;28;20053;-80
2021/12/13 05:02:56;;;;;;;5.43;2.80;;;;;;;;;;5015683;28;20463;-78
2021/12/13 05:05:23;;;;;;;4.63;3.13;;;;;;;;;;5016526;28;20574;-80
2021/12/13 05:07:52;;;;;;;4.85;2.80;;;;;;;;;;5017080;28;20096;-80
2021/12/13 05:10:19;;;;;;;6.45;2.70;;;;;;;;;;5016982;28;20042;-79
2021/12/13 05:13:05;;;;;;;5.18;2.85;;;;;;;;;;5016914;28;20053;-79
2021/12/13 05:15:33;;;;;;;6.03;3.13;;;;;;;;;;5017429;28;20409;-78
2021/12/13 05:18:05;;;;;;;6.20;3.38;;;;;;;;;;5017713;28;20053;-79
2021/12/13 05:20:38;;;;;;;6.18;3.22;;;;;;;;;;5016486;28;20114;-77
2021/12/13 05:23:09;;;;;;;4.80;2.92;;;;;;;;;;5015058;28;20153;-78
2021/12/13 05:25:36;;;;;;;;;;;;;;;;;;5015347;28;20052;-79
2021/12/13 05:28:10;;;;;;;7.63;3.85;;;;;;;;;;5016459;28;19952;-79
2021/12/13 05:30:44;;;;;;;6.07;3.38;;;;;;;;;;5026467;28;20072;-77
2021/12/13 05:33:15;;;;;;;7.15;3.60;;;;;;;;;;5024605;28;20080;-78
2021/12/13 05:35:45;;;;;;;6.40;3.35;;;;;;;;;;5023760;28;20046;-78
2021/12/13 05:38:26;;;;;;;5.23;3.07;;;;;;;;;;5017853;28;20092;-79
2021/12/13 05:40:53;;;;;;;7.38;4.35;;;;;;;;;;5017310;28;20042;-79
2021/12/13 05:43:24;;;;;;;7.68;3.50;;;;;;;;;;5017594;28;20046;-78
2021/12/13 05:45:54;;;;;;;8.20;4.63;;;;;;;;;;5017448;28;20425;-78
2021/12/13 05:48:24;;;;;;;8.00;3.92;;;;;;;;;;5016209;28;20046;-77
2021/12/13 05:50:54;;;;;;;5.97;4.03;;;;;;;;;;5016514;28;20042;-80
2021/12/13 05:53:24;;;;;;;7.38;4.35;;;;;;;;;;5015629;28;20049;-79
2021/12/13 05:55:58;;;;;;;8.45;4.70;;;;;;;;;;5015244;28;20049;-79
2021/12/13 05:58:36;;;;;;;7.38;4.05;;;;;;;;;;5016613;28;20045;-80
2021/12/13 06:01:11;;;;;;;8.05;4.30;;;;;;;;;;5017613;28;20524;-79
2021/12/13 06:03:40;;;;;;;6.85;3.90;;;;;;;;;;5015521;28;20412;-79
2021/12/13 06:06:11;;;;;;;6.93;3.85;;;;;;;;;;5016693;28;20056;-78
2021/12/13 06:08:44;;;;;;;7.50;4.25;;;;;;;;;;5018086;28;20145;-79
2021/12/13 06:11:14;;;;;;;6.93;4.25;;;;;;;;;;5022080;28;20064;-78
2021/12/13 06:13:57;;;;;;;8.43;4.18;;;;;;;;;;5022361;28;20045;-79
2021/12/13 06:16:41;;;;;;;8.07;4.45;;;;;;;;;;5017414;28;20389;-79
2021/12/13 06:19:15;;;;;;;8.63;4.00;;;;;;;;;;5015803;28;20119;-80
2021/12/13 06:22:01;;;;;;;8.75;4.32;;;;;;;;;;5015837;28;20389;-78
2021/12/13 06:24:31;;;;;;;8.52;4.47;;;;;;;;;;5015680;28;20505;-79
2021/12/13 06:27:17;;;;;;;8.73;5.10;;;;;;;;;;5017489;28;20069;-79
2021/12/13 06:29:54;;;;;;;9.10;4.75;;;;;;;;;;5015117;28;20050;-78
2021/12/13 06:32:26;;;;;;;8.32;4.40;;;;;;;;;;5016625;28;20050;-80
2021/12/13 06:34:54;;;;;;;11.70;4.95;;;;;;;;;;5015763;28;20096;-80
2021/12/13 06:37:27;;;;;;;8.73;4.93;;;;;;;;;;5016873;28;20049;-79
2021/12/13 06:40:11;;;;;;;9.75;5.40;;;;;;;;;;5016635;28;20049;-79
2021/12/13 06:42:38;;;;;;;12.05;5.90;;;;;;;;;;5017583;28;20054;-79
2021/12/13 06:45:19;;;;;;;10.52;5.80;;;;;;;;;;5015874;28;20045;-79
2021/12/13 06:47:48;;;;;;;10.48;5.45;;;;;;;;;;5016515;28;20046;-79
2021/12/13 06:50:21;;;;;;;10.50;5.75;;;;;;;;;;5016015;28;20058;-79
2021/12/13 06:52:48;;;;;;;13.02;6.10;;;;;;;;;;5015839;28;20115;-79
2021/12/13 06:55:18;;;;;;;12.30;5.40;;;;;;;;;;5016382;28;20520;-81
2021/12/13 06:57:48;;;;;;;11.98;5.75;;;;;;;;;;5016157;28;20046;-79
2021/12/13 07:00:26;;;;;;;10.18;5.72;;;;;;;;;;5016120;28;20046;-80
2021/12/13 07:02:55;;;;;;;11.75;5.65;;;;;;;;;;5016150;28;20049;-80
2021/12/13 07:05:24;;;;;;;11.18;6.47;;;;;;;;;;5015971;28;20585;-80
2021/12/13 07:07:55;;;;;;;12.05;5.90;;;;;;;;;;5014913;28;20097;-80
2021/12/13 07:10:24;;;;;;;10.15;5.53;;;;;;;;;;5014542;28;20053;-80
2021/12/13 07:12:54;;;;;;;11.35;5.85;;;;;;;;;;5017377;28;20129;-79
2021/12/13 07:15:37;;;;;;;13.60;6.83;;;;;;;;;;5018964;28;20045;-78
2021/12/13 07:18:14;;;;;;;10.38;6.32;;;;;;;;;;5019320;28;20049;-79
2021/12/13 07:20:46;;;;;;;12.52;5.97;;;;;;;;;;5019145;28;20393;-80
2021/12/13 07:23:13;;;;;;;10.55;5.75;;;;;;;;;;5019083;28;20100;-79
2021/12/13 07:25:43;;;;;;;11.27;6.10;;;;;;;;;;5019559;28;20425;-79
2021/12/13 07:28:11;;;;;;;15.00;6.45;;;;;;;;;;5019074;28;20049;-79
2021/12/13 07:30:40;;;;;;;11.57;5.72;;;;;;;;;;5019444;28;20271;-80
2021/12/13 07:33:11;;;;;;;11.93;6.95;;;;;;;;;;5018779;28;20050;-79
2021/12/13 07:35:43;;;;;;;11.52;5.70;;;;;;;;;;5018812;28;20050;-79
2021/12/13 07:38:20;;;;;;;10.98;5.68;;;;;;;;;;5019239;28;20170;-79
2021/12/13 07:40:49;;;;;;;13.50;6.60;;;;;;;;;;5018582;28;20092;-80
2021/12/13 07:43:20;;;;;;;13.45;6.35;;;;;;;;;;5018092;28;20046;-77
2021/12/13 07:46:05;;;;;;;11.70;6.30;;;;;;;;;;5018201;28;20456;-80
2021/12/13 07:48:34;;;;;;;10.73;6.05;;;;;;;;;;5017858;28;20137;-79
2021/12/13 07:51:11;;;;;;;12.95;6.20;;;;;;;;;;5018071;28;20112;-78
2021/12/13 07:53:44;;;;;;;11.13;5.80;;;;;;;;;;5017074;28;20054;-79
2021/12/13 07:56:19;;;;;;;12.10;5.97;;;;;;;;;;5017528;28;20061;-78
2021/12/13 07:58:51;;;;;;;12.52;6.25;;;;;;;;;;5016553;28;20497;-77
2021/12/13 08:01:22;;;;;;;13.55;7.03;;;;;;;;;;5017442;28;20421;-79
2021/12/13 08:03:56;;;;;;;13.38;6.32;;;;;;;;;;5019369;28;20134;-79
2021/12/13 08:06:27;;;;;;;12.55;6.18;;;;;;;;;;5020946;28;20042;-79
2021/12/13 08:08:55;;;;;;;;;;;;;;;;;;5021496;28;20049;-80
2021/12/13 08:11:36;;;;;;;11.40;6.20;;;;;;;;;;5022222;28;19945;-81
2021/12/13 08:14:04;;;;;;;15.73;6.65;;;;;;;;;;5027831;28;20050;-79
2021/12/13 08:16:35;;;;;;;13.45;6.43;;;;;;;;;;5019732;22;20077;-79
2021/12/13 08:19:14;;;;;;;10.93;5.60;;;;;;;;;;5008472;28;20476;-79
2021/12/13 08:21:45;;;;;;;12.20;5.90;;;;;;;;;;5008516;28;20129;-79
2021/12/13 08:24:26;;;;;;;12.95;5.78;;;;;;;;;;5006548;28;20046;-78
2021/12/13 08:26:55;;;;;;;;;;;;;;;;;;4982773;28;20046;-79
2021/12/13 08:29:27;;;;;;;12.23;5.65;;;;;;;;;;4981566;28;20637;-79
2021/12/13 08:31:57;;;;;;;11.43;5.63;;;;;;;;;;4981650;28;20210;-79
2021/12/13 08:34:27;;;;;;;12.95;7.07;;;;;;;;;;4985155;28;20105;-79
2021/12/13 08:36:55;;;;;;;12.23;6.33;;;;;;;;;;4982649;28;20058;-78
2021/12/13 08:39:30;;;;;;;13.98;6.72;;;;;;;;;;4988610;28;20296;-79
2021/12/13 08:41:59;;;;;;;13.50;6.32;;;;;;;;;;4993243;28;20050;-79
2021/12/13 08:44:29;;;;;;;14.10;6.70;;;;;;;;;;4992537;28;20038;-79
2021/12/13 08:46:59;;;;;;;12.45;6.55;;;;;;;;;;4993477;28;20101;-79
2021/12/13 08:49:35;;;;;;;12.77;6.43;;;;;;;;;;4993445;28;20050;-78
2021/12/13 08:52:18;;;;;;;13.57;6.28;;;;;;;;;;4993620;28;20070;-79
2021/12/13 08:54:51;;;;;;;13.48;6.80;;;;;;;;;;4994884;28;20105;-78
2021/12/13 08:57:33;;;;;;;11.55;5.85;;;;;;;;;;4995615;28;20039;-79
2021/12/13 09:00:07;;;;;;;13.25;6.63;;;;;;;;;;4993799;28;20051;-78
2021/12/13 09:02:40;;;;;;;12.00;6.10;;;;;;;;;;4992859;28;20050;-79
2021/12/13 09:05:11;;;;;;;12.65;7.03;;;;;;;;;;4993829;28;20061;-79
2021/12/13 09:07:48;;;;;;;11.93;6.13;;;;;;;;;;4991911;28;20046;-78
2021/12/13 09:10:15;;;;;;;12.20;6.15;;;;;;;;;;4991075;28;20438;-78
2021/12/13 09:12:45;;;;;;;16.15;7.28;;;;;;;;;;4986063;28;20046;-78
2021/12/13 09:15:19;;;;;;;13.05;6.28;;;;;;;;;;4980615;28;20065;-79
2021/12/13 09:17:49;;;;;;;11.23;5.90;;;;;;;;;;4979923;28;20042;-78
2021/12/13 09:20:21;;;;;;;11.65;6.05;;;;;;;;;;4982263;28;20152;-81
2021/12/13 09:22:52;;;;;;;11.02;5.63;;;;;;;;;;4985190;28;20047;-83
2021/12/13 09:25:29;;;;;;;12.23;6.65;;;;;;;;;;4983225;28;20050;-84
2021/12/13 09:28:01;;;;;;;12.73;6.05;;;;;;;;;;4985203;28;20667;-83
2021/12/13 09:30:37;;;;;;;11.75;6.00;;;;;;;;;;4982148;28;20335;-79
2021/12/13 09:33:11;;;;;;;12.70;6.43;;;;;;;;;;4981110;28;20043;-78
2021/12/13 09:35:42;;;;;;;12.07;6.50;;;;;;;;;;4980098;28;20047;-78
2021/12/13 09:38:32;;;;;;;11.60;5.80;;;;;;;;;;4979680;28;20129;-78
2021/12/13 09:41:05;;;;;;;12.35;6.53;;;;;;;;;;4980973;28;20124;-78
2021/12/13 09:43:46;;;;;;;11.35;5.43;;;;;;;;;;4980160;28;20106;-78
2021/12/13 09:46:16;;;;;;;10.82;5.47;;;;;;;;;;4980852;28;20421;-78
2021/12/13 09:48:48;;;;;;;18.65;9.80;;;;;;;;;;4981732;28;20050;-78
2021/12/13 09:51:20;;;;;;;9.43;5.60;;;;;;;;;;4980673;28;20050;-78
2021/12/13 09:53:54;;;;;;;12.43;5.82;;;;;;;;;;4980947;28;20054;-78
2021/12/13 09:56:24;;;;;;;10.48;5.35;;;;;;;;;;4981654;28;20057;-78
2021/12/13 09:58:53;;;;;;;11.43;5.93;;;;;;;;;;4981938;28;20532;-76
2021/12/13 10:01:24;;;;;;;12.50;6.28;;;;;;;;;;4988464;28;20117;-78
2021/12/13 10:03:57;;;;;;;11.38;6.40;;;;;;;;;;4988988;28;20061;-77
2021/12/13 10:06:27;;;;;;;13.68;6.93;;;;;;;;;;4988235;28;20053;-77
2021/12/13 10:08:58;;;;;;;12.98;6.88;;;;;;;;;;4988724;28;20062;-79
2021/12/13 10:11:25;;;;;;;;;;;;;;;;;;4986949;28;20042;-79
2021/12/13 10:13:53;;;;;;;11.85;6.28;;;;;;;;;;4987291;28;19932;-78
2021/12/13 10:16:23;;;;;;;17.27;7.45;;;;;;;;;;4988268;28;20407;-78
2021/12/13 10:18:54;;;;;;;11.55;6.93;;;;;;;;;;4988972;28;20050;-77
2021/12/13 10:21:24;;;;;;;14.48;6.20;;;;;;;;;;4989432;28;20082;-78
2021/12/13 10:23:55;;;;;;;12.88;6.95;;;;;;;;;;4988564;28;20050;-78
2021/12/13 10:26:23;;;;;;;;;;;;;;;;;;4989258;28;20097;-78
2021/12/13 10:28:55;;;;;;;11.88;6.10;;;;;;;;;;4990414;28;19937;-77
2021/12/13 10:31:26;;;;;;;12.32;7.15;;;;;;;;;;4990142;28;20699;-77
2021/12/13 10:33:56;;;;;;;;;;;;;;;;;;4990950;28;20061;-79
2021/12/13 10:36:27;;;;;;;11.48;6.30;;;;;;;;;;4989849;28;19922;-78
2021/12/13 10:38:57;;;;;;;14.25;7.00;;;;;;;;;;4990790;28;20054;-78
2021/12/13 10:41:28;;;;;;;15.50;7.55;;;;;;;;;;4992610;28;20497;-78
2021/12/13 10:43:59;;;;;;;13.38;6.88;;;;;;;;;;4989878;28;21011;-78
2021/12/13 10:46:31;;;;;;;17.23;7.57;;;;;;;;;;4986441;28;20047;-77
2021/12/13 10:49:01;;;;;;;13.18;7.18;;;;;;;;;;4989284;28;20093;-77
2021/12/13 10:51:32;;;;;;;12.90;7.05;;;;;;;;;;4989922;28;20497;-77
2021/12/13 10:54:04;;;;;;;12.55;7.10;;;;;;;;;;4991692;28;20050;-77
2021/12/13 10:56:35;;;;;;;11.57;7.35;;;;;;;;;;4991995;28;20047;-76
2021/12/13 10:59:06;;;;;;;16.30;8.23;;;;;;;;;;4989682;28;20070;-77
2021/12/13 11:01:37;;;;;;;12.55;6.72;;;;;;;;;;4990455;28;20079;-77
2021/12/13 11:04:10;;;;;;;13.05;7.40;;;;;;;;;;4991721;28;20046;-77
2021/12/13 11:06:39;;;;;;;12.07;6.72;;;;;;;;;;4991148;28;20061;-77
2021/12/13 11:09:10;;;;;;;12.85;6.72;;;;;;;;;;4991840;28;20047;-77
2021/12/13 11:11:41;;;;;;;13.60;7.43;;;;;;;;;;4990253;28;20051;-77
2021/12/13 11:14:13;;;;;;;14.13;7.32;;;;;;;;;;4990106;28;20059;-80
2021/12/13 11:16:44;;;;;;;12.57;7.25;;;;;;;;;;4989263;28;20121;-79
2021/12/13 11:19:16;;;;;;;14.57;7.50;;;;;;;;;;4988772;28;20493;-79
2021/12/13 11:21:47;;;;;;;12.13;6.63;;;;;;;;;;4988488;28;20568;-77
2021/12/13 11:24:15;;;;;;;;;;;;;;;;;;4989265;28;20721;-80
2021/12/13 11:26:45;;;;;;;14.20;7.30;;;;;;;;;;4987485;28;19926;-79
2021/12/13 11:29:15;;;;;;;14.05;8.13;;;;;;;;;;4988614;28;20050;-78
2021/12/13 11:32:29;;;;;;;14.90;8.03;;;;;;;;;;4988641;28;20054;-78
2021/12/13 11:35:53;;;;;;;16.23;7.97;;;;;;;;;;4980520;28;20054;-76
2021/12/13 11:38:39;;;;;;;14.73;7.40;;;;;;;;;;4956466;29;20059;-77
2021/12/13 11:41:32;;;;;;;19.63;11.20;;;;;;;;;;4957345;29;20051;-79
2021/12/13 11:44:18;;;;;;;18.55;9.60;;;;;;;;;;4984498;28;20097;-79
2021/12/13 11:47:20;;;;;;;14.90;7.28;;;;;;;;;;4993569;28;20050;-77
2021/12/13 11:50:16;;;;;;;14.73;7.00;;;;;;;;;;5001975;28;20039;-77
2021/12/13 11:53:12;;;;;;;13.23;7.00;;;;;;;;;;4991255;28;20105;-79
2021/12/13 11:55:54;;;;;;;12.10;5.57;;;;;;;;;;4990154;28;20061;-80
2021/12/13 11:58:46;;;;;;;13.98;6.75;;;;;;;;;;4989284;28;20062;-78
2021/12/13 12:01:39;;;;;;;13.45;6.93;;;;;;;;;;4989533;28;20050;-79
2021/12/13 12:04:40;;;;;;;12.52;5.90;;;;;;;;;;4991531;28;20051;-80
2021/12/13 12:07:23;;;;;;;12.40;6.37;;;;;;;;;;4985703;28;20053;-79
2021/12/13 12:10:28;;;;;;;15.73;8.63;;;;;;;;;;4993475;28;21282;-79
2021/12/13 12:13:08;;;;;;;15.25;7.95;;;;;;;;;;4981669;28;20058;-78
2021/12/13 12:15:40;;;;;;;16.43;8.40;;;;;;;;;;4989430;28;20055;-78
2021/12/13 12:18:09;;;;;;;15.02;7.80;;;;;;;;;;4989137;28;20319;-78
2021/12/13 12:20:39;;;;;;;14.98;7.32;;;;;;;;;;4989523;28;20056;-77
2021/12/13 12:23:09;;;;;;;14.45;7.63;;;;;;;;;;4988351;28;20054;-79
2021/12/13 12:25:40;;;;;;;14.48;7.13;;;;;;;;;;4988731;28;20050;-80
2021/12/13 12:28:13;;;;;;;14.95;7.93;;;;;;;;;;4988902;28;20054;-77
2021/12/13 12:30:44;;;;;;;15.40;7.00;;;;;;;;;;4989904;28;20533;-78
2021/12/13 12:33:12;;;;;;;15.23;7.78;;;;;;;;;;4989462;28;20054;-78
2021/12/13 12:35:43;;;;;;;12.85;7.07;;;;;;;;;;4988374;28;20111;-79
2021/12/13 12:39:20;;;;;;;16.80;7.07;;;;;;;;;;4989437;28;20508;-80
2021/12/13 12:42:00;;;;;;;15.32;7.78;;;;;;;;;;4979011;28;20105;-80
2021/12/13 12:44:37;;;;;;;14.60;7.72;;;;;;;;;;4988269;28;20141;-78
2021/12/13 12:47:04;;;;;;;16.67;7.68;;;;;;;;;;4989205;28;21514;-78
2021/12/13 12:49:31;;;;;;;15.75;7.97;;;;;;;;;;4987985;28;20054;-79
2021/12/13 12:52:05;;;;;;;16.55;8.38;;;;;;;;;;4987627;28;20142;-79
2021/12/13 12:54:35;;;;;;;15.32;7.68;;;;;;;;;;4987523;28;20054;-78
2021/12/13 12:57:03;;;;;;;12.90;7.50;;;;;;;;;;4987788;28;20047;-78
2021/12/13 12:59:34;;;;;;;14.43;7.05;;;;;;;;;;4987899;28;20819;-78
2021/12/13 13:02:08;;;;;;;16.05;8.20;;;;;;;;;;4987515;28;20069;-80
2021/12/13 13:04:37;;;;;;;29.10;14.35;;;;;;;;;;4987656;28;20054;-79
2021/12/13 13:07:07;;;;;;;21.52;10.55;;;;;;;;;;4987419;28;20449;-79
2021/12/13 13:09:42;;;;;;;33.38;16.02;;;;;;;;;;4985838;28;20046;-80
2021/12/13 13:12:11;;;;;;;12.63;7.20;;;;;;;;;;4984857;28;20404;-79
2021/12/13 13:14:49;;;;;;;13.90;7.47;;;;;;;;;;4986168;28;20053;-80
2021/12/13 13:17:17;;;;;;;16.67;9.38;;;;;;;;;;4985199;28;20594;-79
2021/12/13 13:19:47;;;;;;;21.38;11.15;;;;;;;;;;4984691;28;20086;-77
2021/12/13 13:22:19;;;;;;;15.75;8.38;;;;;;;;;;4984819;28;20050;-80
2021/12/13 13:24:51;;;;;;;13.13;7.70;;;;;;;;;;4984656;28;20054;-78
2021/12/13 13:27:19;;;;;;;13.20;6.70;;;;;;;;;;4984005;28;20112;-78
2021/12/13 13:29:48;;;;;;;15.65;8.57;;;;;;;;;;4984597;28;20532;-77
2021/12/13 13:32:16;;;;;;;14.05;8.07;;;;;;;;;;4983190;28;20054;-77
2021/12/13 13:34:46;;;;;;;17.52;9.95;;;;;;;;;;4986124;28;20141;-79
2021/12/13 13:37:17;;;;;;;15.33;7.83;;;;;;;;;;4986102;28;20113;-79
2021/12/13 13:39:47;;;;;;;14.23;8.52;;;;;;;;;;4984514;28;20098;-78
2021/12/13 13:42:17;;;;;;;14.75;7.50;;;;;;;;;;4983793;28;20061;-76
2021/12/13 13:44:48;;;;;;;14.77;7.50;;;;;;;;;;4983045;28;20043;-78
2021/12/13 13:47:18;;;;;;;14.68;6.93;;;;;;;;;;4980508;28;20049;-77
2021/12/13 13:49:46;;;;;;;15.77;8.00;;;;;;;;;;4981441;28;20222;-78
2021/12/13 13:52:23;;;;;;;14.15;7.68;;;;;;;;;;4980827;28;20102;-77
2021/12/13 13:54:54;;;;;;;13.55;6.82;;;;;;;;;;4981718;28;20069;-77
2021/12/13 13:57:24;;;;;;;14.90;8.25;;;;;;;;;;4981082;28;20043;-77
2021/12/13 13:59:53;;;;;;;16.10;7.63;;;;;;;;;;4984333;28;20065;-79
2021/12/13 14:02:25;;;;;;;13.93;7.40;;;;;;;;;;4985645;28;20054;-78
2021/12/13 14:04:58;;;;;;;16.05;7.97;;;;;;;;;;4985591;28;20048;-78
2021/12/13 14:07:27;;;;;;;17.58;8.07;;;;;;;;;;4985696;28;20104;-77
2021/12/13 14:09:56;;;;;;;15.30;7.95;;;;;;;;;;4984042;28;20077;-79
2021/12/13 14:12:28;;;;;;;15.43;7.45;;;;;;;;;;4984761;28;20955;-78
2021/12/13 14:15:03;;;;;;;14.63;8.38;;;;;;;;;;4985482;28;20442;-78
2021/12/13 14:17:40;;;;;;;13.63;7.18;;;;;;;;;;4985504;28;20110;-76
2021/12/13 14:20:23;;;;;;;16.65;8.70;;;;;;;;;;5035714;23;20033;-66
2021/12/13 14:22:52;;;;;;;18.25;8.93;;;;;;;;;;5015780;28;20164;-66
2021/12/13 14:25:33;;;;;;;15.05;7.88;;;;;;;;;;5016269;28;20050;-66
2021/12/13 14:28:01;;;;;;;;;;;;;;;;;;5015303;28;20060;-66
2021/12/13 14:30:33;;;;;;;14.73;7.35;;;;;;;;;;5015866;28;19960;-66
2021/12/13 14:33:00;;;;;;;19.00;10.25;;;;;;;;;;5015679;28;20042;-67
2021/12/13 14:35:31;;;;;;;17.88;9.02;;;;;;;;;;5017580;28;20045;-66
2021/12/13 14:38:06;;;;;;;19.30;10.65;;;;;;;;;;5014189;28;20448;-66
2021/12/13 14:40:46;;;;;;;17.77;8.43;;;;;;;;;;5017794;28;20577;-66
2021/12/13 14:43:18;;;;;;;16.90;9.38;;;;;;;;;;5015164;28;20393;-66
2021/12/13 14:45:47;;;;;;;17.88;8.43;;;;;;;;;;5015464;28;20046;-66
2021/12/13 14:48:20;;;;;;;19.05;8.80;;;;;;;;;;5014966;28;20038;-65
2021/12/13 14:50:53;;;;;;;19.85;9.00;;;;;;;;;;5017265;28;20053;-67
2021/12/13 14:53:27;;;;;;;23.02;9.82;;;;;;;;;;5016720;28;20060;-66
2021/12/13 14:55:56;;;;;;;16.80;8.63;;;;;;;;;;5015432;28;20048;-66
2021/12/13 14:58:33;;;;;;;19.48;10.55;;;;;;;;;;5015259;28;20048;-66
2021/12/13 15:01:06;;;;;;;19.60;9.98;;;;;;;;;;5016302;28;20068;-66
2021/12/13 15:03:36;;;;;;;18.88;9.20;;;;;;;;;;5015744;28;20041;-67
2021/12/13 15:06:07;;;;;;;19.43;9.23;;;;;;;;;;5016621;28;20054;-66
2021/12/13 15:08:34;;;;;;;;;;;;;;;;;;5017086;28;20287;-66
2021/12/13 15:11:09;;;;;;;17.88;9.40;;;;;;;;;;5015252;28;19936;-67
2021/12/13 15:13:42;;;;;;;19.20;9.70;;;;;;;;;;5015047;28;20050;-67
2021/12/13 15:16:13;;;;;;;20.10;10.40;;;;;;;;;;5014727;28;20080;-66
2021/12/13 15:18:43;;;;;;;20.15;9.90;;;;;;;;;;5015298;28;20136;-67